Time;durP1;ratioP1;P1;durP2;ratioP2;P2;SDS_P1;SDS_P2;PMS_P1;PMS_P2;Temp;Humidity;BMP_temperature;BMP_pressure;BME280_temperature;BME280_humidity;BME280_pressure;Samples;Min_cycle;Max_cycle;Signal;HPM_P1;HPM_P2
2022/08/02 00:02:07;;;;;;;3.77;1.73;;;21.10;61.10;;;21.67;47.20;94792.88;5013451;28;20468;-59
2022/08/02 00:04:34;;;;;;;4.60;1.80;;;21.10;61.00;;;21.66;47.25;94791.25;5011053;28;20550;-58
2022/08/02 00:07:01;;;;;;;1.77;1.67;;;21.10;61.10;;;21.63;47.60;94799.72;5016594;28;20473;-58
2022/08/02 00:09:30;;;;;;;2.03;1.60;;;21.10;61.10;;;21.61;47.55;94794.56;5014979;28;20505;-59
2022/08/02 00:11:57;;;;;;;6.53;2.13;;;21.10;61.10;;;21.59;47.65;94791.25;5021228;28;20526;-59
2022/08/02 00:14:24;;;;;;;2.33;1.90;;;21.10;61.10;;;21.57;47.49;94789.84;5017014;28;20465;-57
2022/08/02 00:16:51;;;;;;;2.53;1.43;;;21.10;61.10;;;21.54;47.77;94787.59;5017096;28;20945;-58
2022/08/02 00:19:18;;;;;;;9.90;1.60;;;21.00;61.00;;;21.50;47.59;94781.81;5020949;28;20602;-57
2022/08/02 00:21:45;;;;;;;5.77;1.67;;;21.00;61.00;;;21.47;47.62;94788.41;5022702;28;20535;-57
2022/08/02 00:24:13;;;;;;;1.40;1.30;;;21.00;61.40;;;21.45;47.69;94784.28;5021219;28;20492;-59
2022/08/02 00:26:41;;;;;;;3.10;1.63;;;20.90;61.30;;;21.45;47.76;94789.63;5021044;28;20504;-59
2022/08/02 00:29:08;;;;;;;2.60;2.17;;;20.90;61.60;;;21.45;48.18;94781.59;5022198;28;21020;-58
2022/08/02 00:31:36;;;;;;;2.10;2.00;;;20.90;61.90;;;21.45;48.05;94782.41;5019090;28;20570;-60
2022/08/02 00:34:03;;;;;;;1.70;1.60;;;20.90;62.10;;;21.43;48.31;94789.03;5025811;28;20456;-60
2022/08/02 00:36:30;;;;;;;2.00;1.77;;;20.90;62.20;;;21.39;48.20;94780.56;5022986;28;20485;-59
2022/08/02 00:38:58;;;;;;;1.80;1.70;;;20.90;62.20;;;21.34;48.24;94793.75;5022226;28;20452;-56
2022/08/02 00:41:25;;;;;;;2.80;1.83;;;20.90;62.40;;;21.30;48.54;94793.38;5018419;28;20481;-57
2022/08/02 00:43:53;;;;;;;3.00;1.90;;;20.80;62.60;;;21.28;48.71;94786.56;5018196;28;20488;-59
2022/08/02 00:46:21;;;;;;;1.87;1.70;;;20.80;62.70;;;21.26;48.83;94785.97;5019107;28;20476;-56
2022/08/02 00:48:48;;;;;;;3.43;1.70;;;20.70;63.00;;;21.24;48.91;94788.84;5020536;28;20461;-57
2022/08/02 00:51:16;;;;;;;2.60;1.77;;;20.70;63.00;;;21.24;49.00;94782.66;5020548;28;20481;-57
2022/08/02 00:53:43;;;;;;;2.37;1.53;;;20.70;63.00;;;21.24;48.60;94777.31;5021998;28;20463;-60
2022/08/02 00:56:10;;;;;;;2.07;1.87;;;20.70;63.00;;;21.25;48.69;94779.78;5018476;28;20481;-58
2022/08/02 00:58:37;;;;;;;3.00;2.17;;;20.70;63.00;;;21.27;48.58;94776.88;5015635;28;20464;-59
2022/08/02 01:01:06;;;;;;;2.60;1.90;;;20.70;63.40;;;21.28;48.57;94779.34;5020386;28;20489;-58
2022/08/02 01:03:33;;;;;;;2.17;1.87;;;20.70;63.20;;;21.29;48.91;94777.53;5015894;28;20466;-58
2022/08/02 01:06:00;;;;;;;1.77;1.53;;;20.70;63.00;;;21.30;48.68;94777.31;5023480;28;20541;-58
2022/08/02 01:08:27;;;;;;;1.90;1.60;;;20.80;63.20;;;21.30;48.65;94774.66;5021376;28;20523;-58
2022/08/02 01:10:55;;;;;;;1.80;1.70;;;20.70;63.10;;;21.30;49.00;94774.66;5024157;28;20453;-58
2022/08/02 01:13:22;;;;;;;3.77;1.90;;;20.80;63.70;;;21.30;48.83;94780.00;5018979;28;20518;-59
2022/08/02 01:16:02;;;;;;;3.00;1.60;;;20.80;63.40;;;21.27;49.39;94782.25;5020406;28;20465;-57
2022/08/02 01:18:35;;;;;;;1.70;1.60;;;20.80;64.00;;;21.27;49.32;94782.25;5019157;28;20449;-58
2022/08/02 01:21:28;;;;;;;1.90;1.80;;;20.70;64.00;;;21.26;49.40;94781.44;5021224;28;20469;-58
2022/08/02 01:24:03;;;;;;;1.73;1.60;;;20.70;64.30;;;21.26;49.41;94775.28;5017769;28;20461;-60
2022/08/02 01:26:43;;;;;;;2.27;2.17;;;20.70;64.30;;;21.19;49.52;94780.59;5018259;28;20577;-57
2022/08/02 01:29:17;;;;;;;2.70;2.20;;;20.70;64.10;;;21.10;49.50;94780.03;5024485;28;20455;-57
2022/08/02 01:31:50;;;;;;;1.67;1.57;;;20.60;63.90;;;21.01;49.51;94781.25;5022717;28;20469;-59
2022/08/02 01:34:21;;;;;;;2.03;1.93;;;20.50;64.30;;;20.94;49.74;94781.28;5018886;28;21015;-57
2022/08/02 01:36:53;;;;;;;2.40;2.20;;;20.50;64.60;;;20.89;49.35;94780.25;5019207;28;20469;-59
2022/08/02 01:39:24;;;;;;;4.43;2.97;;;20.40;64.80;;;20.87;50.08;94787.66;5018217;28;20515;-57
2022/08/02 01:41:52;;;;;;;2.53;2.20;;;20.40;65.10;;;20.86;49.82;94786.81;5020065;28;20603;-57
2022/08/02 01:44:21;;;;;;;4.60;1.83;;;20.30;65.40;;;20.88;49.71;94775.91;5018151;28;20497;-58
2022/08/02 01:46:48;;;;;;;4.67;2.40;;;20.30;65.30;;;20.88;49.91;94789.28;5020020;28;20478;-59
2022/08/02 01:49:18;;;;;;;1.60;1.50;;;20.30;65.50;;;20.88;50.05;94794.63;5015159;28;20627;-60
2022/08/02 01:54:32;;;;;;;5.17;1.60;;;20.30;65.40;;;20.80;50.42;94786.81;5026538;28;20595;-59
2022/08/02 01:57:00;;;;;;;2.10;1.83;;;20.30;65.60;;;20.71;49.99;94787.03;5020691;28;20484;-59
2022/08/02 01:59:28;;;;;;;2.23;2.00;;;20.20;65.50;;;20.62;50.36;94785.56;5020591;28;20922;-60
2022/08/02 02:01:55;;;;;;;2.33;1.80;;;20.10;65.50;;;20.51;50.35;94788.81;5018807;28;20518;-62
2022/08/02 02:04:22;;;;;;;2.70;2.50;;;20.00;65.80;;;20.44;50.72;94788.00;5019573;28;20493;-58
2022/08/02 02:06:50;;;;;;;3.87;2.40;;;20.00;66.30;;;20.35;50.92;94790.84;5019172;28;20910;-59
2022/08/02 02:09:17;;;;;;;2.73;2.20;;;19.90;66.50;;;20.28;51.15;94795.34;5019229;28;20453;-59
2022/08/02 02:11:44;;;;;;;3.60;2.33;;;19.80;66.40;;;20.22;50.92;94798.84;5017993;28;20577;-59
2022/08/02 02:14:12;;;;;;;2.13;2.03;;;19.80;66.60;;;20.20;51.05;94792.84;5021987;28;20476;-57
2022/08/02 02:16:41;;;;;;;4.93;2.20;;;19.70;67.00;;;20.17;51.36;94796.78;5021682;28;20898;-58
2022/08/02 02:19:08;;;;;;;8.73;2.40;;;19.70;66.90;;;20.14;51.67;94791.00;5020052;28;20962;-60
2022/08/02 02:21:35;;;;;;;4.17;2.17;;;19.60;67.10;;;20.09;51.39;94788.09;5020594;28;20909;-58
2022/08/02 02:24:02;;;;;;;2.77;2.00;;;19.60;67.10;;;20.03;51.56;94787.91;5020908;28;20839;-63
2022/08/02 02:26:29;;;;;;;2.60;1.70;;;19.60;67.30;;;19.99;51.80;94785.81;5016835;28;20870;-57
2022/08/02 02:28:57;;;;;;;4.33;2.00;;;19.50;67.70;;;19.95;52.00;94784.56;5020862;28;20514;-57
2022/08/02 02:31:24;;;;;;;4.03;2.00;;;19.50;67.80;;;19.88;51.97;94784.56;5017840;28;20552;-58
2022/08/02 02:33:59;;;;;;;2.30;2.20;;;19.40;68.00;;;19.83;52.27;94787.81;5019883;28;20840;-59
2022/08/02 02:36:26;;;;;;;2.93;2.23;;;19.40;68.20;;;19.81;51.67;94786.38;5020692;28;20489;-57
2022/08/02 02:38:53;;;;;;;2.60;2.40;;;19.40;68.60;;;19.77;51.91;94785.09;5018815;28;20461;-58
2022/08/02 02:41:22;;;;;;;2.50;2.30;;;19.30;68.50;;;19.71;52.38;94781.38;5019812;28;21043;-57
2022/08/02 02:43:49;;;;;;;2.33;2.13;;;19.20;68.80;;;19.65;52.10;94782.16;5017047;28;20468;-57
2022/08/02 02:46:16;;;;;;;2.50;2.30;;;19.20;68.90;;;19.59;52.24;94778.44;5019493;28;21060;-60
2022/08/02 02:48:43;;;;;;;4.93;2.23;;;19.20;69.20;;;19.56;52.74;94786.03;5014835;28;20466;-58
2022/08/02 02:51:12;;;;;;;3.07;2.87;;;19.10;69.30;;;19.52;52.79;94789.09;5015769;28;20965;-59
2022/08/02 02:53:39;;;;;;;4.97;2.60;;;19.10;69.50;;;19.50;52.80;94782.28;5022640;28;20881;-57
2022/08/02 02:56:06;;;;;;;3.97;2.70;;;19.10;69.80;;;19.51;52.75;94792.75;5014493;28;20525;-58
2022/08/02 02:58:34;;;;;;;7.83;2.60;;;19.00;69.90;;;19.50;52.66;94788.47;5015672;28;20937;-59
2022/08/02 03:03:45;;;;;;;6.87;2.57;;;19.00;70.70;;;19.47;52.74;94785.34;5015872;28;20495;-57
2022/08/02 03:06:14;;;;;;;9.50;2.47;;;19.00;70.10;;;19.44;53.18;94783.91;5021793;28;20583;-58
2022/08/02 03:08:41;;;;;;;3.30;3.00;;;19.00;70.20;;;19.41;52.89;94792.31;5012457;28;20473;-59
2022/08/02 03:11:09;;;;;;;2.97;2.57;;;19.00;70.50;;;19.38;53.29;94792.72;5019131;28;20464;-59
2022/08/02 03:13:36;;;;;;;5.70;3.10;;;19.00;70.60;;;19.35;52.83;94791.25;5017081;28;20496;-58
2022/08/02 03:16:04;;;;;;;2.23;2.13;;;18.90;70.60;;;19.28;53.28;94795.69;5018852;28;21004;-57
2022/08/02 03:18:32;;;;;;;2.97;2.73;;;18.90;71.20;;;19.27;53.75;94796.75;5012428;28;20453;-58
2022/08/02 03:21:01;;;;;;;9.47;3.40;;;18.80;71.20;;;19.22;53.63;94788.47;5021025;28;20570;-57
2022/08/02 03:23:30;;;;;;;7.53;2.97;;;18.80;71.50;;;19.19;53.86;94796.06;5020215;28;20457;-59
2022/08/02 03:25:58;;;;;;;3.43;3.13;;;18.70;71.90;;;19.17;54.44;94793.59;5023174;28;20972;-57
2022/08/02 03:28:25;;;;;;;7.37;2.83;;;18.70;72.60;;;19.14;53.87;94792.13;5012900;28;20981;-57
2022/08/02 03:30:52;;;;;;;5.50;3.23;;;18.70;72.80;;;19.12;54.33;94796.03;5016649;28;20503;-58
2022/08/02 03:33:19;;;;;;;5.13;3.33;;;18.70;72.70;;;19.12;54.70;94790.69;5020670;28;20969;-58
2022/08/02 03:35:48;;;;;;;15.40;3.10;;;18.70;73.00;;;19.12;54.63;94790.69;5018222;28;20464;-55
2022/08/02 03:38:16;;;;;;;3.20;3.00;;;18.60;73.00;;;19.12;54.59;94802.16;5016269;28;20884;-57
2022/08/02 03:40:44;;;;;;;3.77;3.43;;;18.60;73.00;;;19.11;54.06;94795.19;5017296;28;20453;-58
2022/08/02 03:43:12;;;;;;;7.17;3.67;;;18.60;73.10;;;19.12;54.19;94794.16;5018114;28;20981;-57
2022/08/02 03:45:40;;;;;;;6.00;3.77;;;18.70;73.50;;;19.14;54.94;94805.47;5020284;28;20527;-60
2022/08/02 03:48:08;;;;;;;14.33;2.97;;;18.70;74.20;;;19.16;54.71;94799.94;5014911;28;20450;-58
2022/08/02 03:50:35;;;;;;;3.60;3.30;;;18.70;73.90;;;19.17;54.25;94804.25;5020259;28;20452;-56
2022/08/02 03:53:02;;;;;;;4.60;3.37;;;18.70;74.20;;;19.20;54.52;94817.19;5024063;28;20469;-59
2022/08/02 03:55:29;;;;;;;4.93;3.10;;;18.70;74.10;;;19.21;54.29;94805.53;5023190;28;20461;-59
2022/08/02 03:57:58;;;;;;;7.13;3.67;;;18.70;73.80;;;19.22;54.88;94812.47;5023687;28;21023;-59
2022/08/02 04:00:25;;;;;;;3.20;2.77;;;18.80;74.30;;;19.24;54.10;94818.47;5023823;28;20461;-58
2022/08/02 04:02:52;;;;;;;5.43;3.50;;;18.80;73.70;;;19.25;53.71;94820.09;5021519;28;21047;-59
2022/08/02 04:05:19;;;;;;;5.17;2.87;;;18.80;73.60;;;19.23;54.18;94818.66;5021654;28;21031;-57
2022/08/02 04:07:47;;;;;;;4.53;3.00;;;18.80;73.80;;;19.24;54.20;94825.63;5024542;28;20477;-58
2022/08/02 04:10:15;;;;;;;11.93;3.20;;;18.80;73.70;;;19.24;54.07;94839.81;5024506;28;20549;-58
2022/08/02 04:12:42;;;;;;;3.83;3.10;;;18.80;73.90;;;19.26;54.40;94829.75;5020829;28;20473;-59
2022/08/02 04:15:12;;;;;;;10.53;4.83;;;18.80;74.00;;;19.30;54.26;94836.34;5022436;28;20445;-59
2022/08/02 04:17:44;;;;;;;3.20;2.90;;;18.80;74.20;;;19.36;54.47;94834.72;5026553;28;20483;-60
2022/08/02 04:20:14;;;;;;;19.43;2.80;;;18.90;74.60;;;19.42;54.25;94843.81;5027754;28;20976;-58
2022/08/02 04:22:47;;;;;;;9.87;4.40;;;18.90;74.70;;;19.47;54.22;94836.03;5027428;28;21070;-57
2022/08/02 04:25:14;;;;;;;9.63;4.17;;;19.00;75.30;;;19.54;54.43;94834.25;5026842;28;21004;-59
2022/08/02 04:27:41;;;;;;;10.10;4.30;;;19.00;74.90;;;19.62;54.02;94834.06;5027996;28;20476;-57
2022/08/02 04:30:11;;;;;;;13.03;3.23;;;19.10;74.70;;;19.66;54.08;94837.19;5024741;28;20464;-59
2022/08/02 04:32:38;;;;;;;11.33;4.13;;;19.20;75.00;;;19.71;53.76;94840.91;5024800;28;20481;-57
2022/08/02 04:35:07;;;;;;;8.30;3.37;;;19.20;74.70;;;19.74;53.55;94841.53;5019797;28;20509;-57
2022/08/02 04:37:34;;;;;;;6.13;3.43;;;19.30;74.70;;;19.74;53.95;94838.88;5018355;28;20534;-59
2022/08/02 04:40:01;;;;;;;7.43;4.13;;;19.30;74.70;;;19.79;53.58;94839.13;5018257;28;20469;-60
2022/08/02 04:42:28;;;;;;;5.80;3.90;;;19.30;74.50;;;19.82;54.18;94836.06;5023014;28;20476;-59
2022/08/02 04:44:56;;;;;;;4.70;3.57;;;19.30;74.50;;;19.84;53.86;94836.69;5022186;28;20461;-58
2022/08/02 04:47:25;;;;;;;6.70;4.10;;;19.30;74.50;;;19.85;53.69;94838.34;5020135;28;20677;-60
2022/08/02 04:49:53;;;;;;;8.83;3.43;;;19.40;74.70;;;19.85;53.69;94838.34;5021662;28;20468;-59
2022/08/02 04:52:20;;;;;;;10.07;3.80;;;19.40;74.60;;;19.88;53.94;94833.41;5020628;28;20483;-57
2022/08/02 04:54:48;;;;;;;5.73;4.43;;;19.40;74.70;;;19.91;54.05;94837.53;5020045;28;21024;-58
2022/08/02 04:59:59;;;;;;;9.40;4.47;;;19.50;74.90;;;19.95;54.06;94843.31;5019895;28;20436;-57
2022/08/02 05:02:28;;;;;;;10.23;4.40;;;19.50;74.90;;;19.99;54.01;94839.22;5023122;28;20843;-59
2022/08/02 05:04:55;;;;;;;6.77;4.07;;;19.50;74.70;;;20.03;53.82;94835.94;5019892;28;20527;-58
2022/08/02 05:07:22;;;;;;;5.43;3.90;;;19.60;75.50;;;20.08;53.74;94842.53;5023507;28;20495;-57
2022/08/02 05:09:50;;;;;;;10.93;3.83;;;19.60;75.50;;;20.13;54.25;94840.91;5022129;28;20453;-58
2022/08/02 05:12:18;;;;;;;8.60;4.27;;;19.60;75.50;;;20.20;53.92;94840.94;5019421;28;20532;-58
2022/08/02 05:14:45;;;;;;;5.30;4.40;;;19.70;75.70;;;20.25;53.99;94849.19;5021871;28;20465;-58
2022/08/02 05:17:12;;;;;;;6.53;3.77;;;19.70;75.30;;;20.31;54.16;94847.53;5020330;28;20873;-58
2022/08/02 05:19:41;;;;;;;11.90;4.47;;;19.80;75.50;;;20.37;53.83;94862.75;5021403;28;20485;-59
2022/08/02 05:22:08;;;;;;;10.17;5.00;;;19.90;75.60;;;20.42;54.12;94861.16;5019482;28;20473;-59
2022/08/02 05:24:35;;;;;;;14.23;4.87;;;19.90;75.50;;;20.52;53.71;94854.59;5022400;28;20468;-58
2022/08/02 05:27:02;;;;;;;10.70;4.90;;;20.00;75.90;;;20.61;53.33;94858.72;5021627;28;20488;-57
2022/08/02 05:29:30;;;;;;;22.43;6.37;;;20.10;75.10;;;20.72;53.31;94854.66;5020852;28;20505;-57
2022/08/02 05:31:57;;;;;;;9.43;5.00;;;20.20;74.90;;;20.88;53.19;94856.13;5015581;28;20593;-58
2022/08/02 05:34:24;;;;;;;17.40;5.70;;;20.30;75.00;;;21.07;52.77;94854.50;5021530;28;20519;-58
2022/08/02 05:36:53;;;;;;;10.47;5.00;;;20.50;75.20;;;21.30;52.80;94862.09;5018660;28;20500;-57
2022/08/02 05:39:20;;;;;;;11.07;4.90;;;20.70;74.90;;;21.55;52.24;94850.78;5018182;28;20461;-59
2022/08/02 05:41:47;;;;;;;4.50;4.10;;;20.90;75.10;;;21.79;52.19;94865.34;5021310;28;20472;-56
2022/08/02 05:44:14;;;;;;;7.60;4.17;;;21.10;74.40;;;22.08;51.56;94863.22;5021541;28;20838;-58
2022/08/02 05:46:41;;;;;;;9.57;4.03;;;21.40;73.60;;;22.36;50.96;94854.88;5019051;28;20497;-58
2022/08/02 05:49:09;;;;;;;4.97;4.10;;;21.70;72.90;;;22.67;50.47;94858.63;5023147;28;20880;-60
2022/08/02 05:51:37;;;;;;;11.77;3.50;;;21.90;72.00;;;22.97;50.29;94858.03;5019303;28;20482;-58
2022/08/02 05:54:12;;;;;;;16.33;3.50;;;22.20;71.40;;;23.28;49.36;94854.50;5021084;28;20448;-59
2022/08/02 05:56:46;;;;;;;6.43;3.57;;;22.50;70.50;;;23.60;48.48;94855.25;5019841;28;20531;-58
2022/08/02 05:59:22;;;;;;;5.60;3.00;;;22.90;69.70;;;23.93;48.24;94861.34;5020341;28;20875;-59
2022/08/02 06:01:49;;;;;;;4.40;3.10;;;23.20;68.40;;;24.21;47.85;94866.19;5020479;28;20468;-58
2022/08/02 06:04:20;;;;;;;2.50;2.30;;;23.50;67.30;;;24.49;46.33;94868.34;5021615;28;20520;-58
2022/08/02 06:06:47;;;;;;;5.33;2.80;;;23.70;65.70;;;24.77;45.63;94872.34;5018607;28;20496;-60
2022/08/02 06:09:17;;;;;;;6.63;2.60;;;24.00;64.10;;;25.05;45.04;94877.09;5023125;28;20445;-58
2022/08/02 06:11:45;;;;;;;6.67;2.30;;;24.30;62.80;;;25.30;44.14;94873.44;5019509;28;20567;-57
2022/08/02 06:14:12;;;;;;;7.30;2.93;;;24.50;62.30;;;25.53;44.19;94877.19;5019428;28;20471;-58
2022/08/02 06:16:40;;;;;;;3.73;2.63;;;24.80;61.60;;;25.77;43.16;94883.41;5019487;28;20471;-60
2022/08/02 06:19:08;;;;;;;4.47;3.23;;;25.00;60.70;;;26.01;43.18;94876.19;5016182;28;20913;-59
2022/08/02 06:21:35;;;;;;;4.03;2.40;;;25.20;59.90;;;26.25;42.76;94878.84;5019901;28;20471;-59
2022/08/02 06:24:02;;;;;;;3.23;2.93;;;25.50;59.40;;;26.49;42.45;94884.97;5018068;28;20457;-58
2022/08/02 06:26:31;;;;;;;5.73;2.17;;;25.70;59.00;;;26.72;41.62;94883.28;5023768;28;20496;-58
2022/08/02 06:28:58;;;;;;;3.93;2.50;;;25.90;58.00;;;26.93;41.30;94889.91;5018978;28;20894;-59
2022/08/02 06:31:25;;;;;;;3.03;1.60;;;26.10;57.20;;;27.13;40.60;94887.56;5021357;28;20558;-59
2022/08/02 06:33:53;;;;;;;2.90;1.50;;;26.30;56.30;;;27.30;40.04;94881.38;5016664;28;20806;-59
2022/08/02 06:36:27;;;;;;;3.97;2.20;;;26.50;55.80;;;27.45;39.78;94876.25;5021767;28;20533;-58
2022/08/02 06:39:06;;;;;;;4.70;2.30;;;26.70;55.60;;;27.65;38.56;94893.81;5019012;28;20476;-59
2022/08/02 06:41:39;;;;;;;8.03;2.10;;;26.80;54.50;;;27.83;38.08;94901.69;5017847;28;20493;-58
2022/08/02 06:44:06;;;;;;;3.17;2.00;;;27.00;53.70;;;27.96;38.70;94899.72;5018922;28;20463;-60
2022/08/02 06:46:33;;;;;;;2.70;1.23;;;27.20;54.40;;;28.07;38.36;94898.78;5018190;28;20504;-59
2022/08/02 06:49:01;;;;;;;2.17;1.90;;;27.20;53.70;;;28.18;38.66;94900.59;5016593;28;20677;-59
2022/08/02 06:51:28;;;;;;;2.17;1.80;;;27.40;53.70;;;28.32;38.45;94901.06;5018651;28;20556;-58
2022/08/02 06:53:55;;;;;;;3.37;1.73;;;27.50;53.20;;;28.44;37.90;94901.75;5022419;28;20451;-59
2022/08/02 06:56:23;;;;;;;8.00;1.87;;;27.60;52.70;;;28.59;37.50;94900.31;5017676;28;20481;-59
2022/08/02 06:58:51;;;;;;;4.60;2.30;;;27.80;51.90;;;28.76;38.00;94894.84;5021183;28;20451;-59
2022/08/02 07:01:19;;;;;;;1.73;1.63;;;27.90;52.50;;;28.93;37.80;94892.84;5018249;28;20463;-57
2022/08/02 07:03:46;;;;;;;4.10;2.27;;;28.10;52.40;;;29.07;37.91;94901.38;5019636;28;20994;-58
2022/08/02 07:06:13;;;;;;;2.83;1.80;;;28.30;52.30;;;29.22;37.25;94895.34;5017974;28;20493;-59
2022/08/02 07:08:40;;;;;;;9.20;1.73;;;28.30;51.60;;;29.32;37.12;94892.72;5020567;28;20502;-59
2022/08/02 07:11:08;;;;;;;2.90;1.90;;;28.50;51.10;;;29.45;36.39;94893.34;5018846;28;20520;-60
2022/08/02 07:13:36;;;;;;;6.80;2.10;;;28.60;51.00;;;29.59;35.97;94886.44;5020115;28;20470;-59
2022/08/02 07:16:05;;;;;;;1.97;1.70;;;28.80;50.20;;;29.77;35.75;94892.53;5016437;28;20559;-58
2022/08/02 07:18:32;;;;;;;4.23;1.50;;;28.90;50.10;;;29.92;35.74;94889.97;5019252;28;20444;-59
2022/08/02 07:20:59;;;;;;;3.43;1.73;;;29.00;50.20;;;30.09;35.52;94894.41;5017215;28;20507;-60
2022/08/02 07:23:27;;;;;;;1.80;1.70;;;29.20;49.90;;;30.26;35.53;94892.31;5021513;28;20460;-60
2022/08/02 07:25:54;;;;;;;2.30;1.80;;;29.40;49.50;;;30.44;35.35;94885.66;5019035;28;20980;-59
2022/08/02 07:28:21;;;;;;;4.87;1.40;;;29.60;49.80;;;30.60;35.52;94881.13;5020364;28;20452;-61
2022/08/02 07:30:48;;;;;;;4.20;1.73;;;29.70;49.50;;;30.67;35.08;94889.81;5016884;28;20237;-60
2022/08/02 07:33:17;;;;;;;6.43;1.80;;;29.80;48.60;;;30.64;34.54;94884.91;5020456;28;20347;-60
2022/08/02 07:35:44;;;;;;;1.40;1.30;;;29.80;48.50;;;30.68;35.33;94891.44;5017920;28;20205;-58
2022/08/02 07:38:11;;;;;;;2.90;1.70;;;29.80;48.40;;;30.81;35.17;94879.25;5020462;28;20343;-58
2022/08/02 07:40:39;;;;;;;2.03;1.50;;;29.90;48.30;;;30.86;34.50;94883.91;5017012;28;20202;-58
2022/08/02 07:43:06;;;;;;;2.27;1.80;;;30.00;48.00;;;30.99;33.93;94875.28;5018442;28;20209;-58
2022/08/02 07:45:33;;;;;;;4.20;1.50;;;30.10;47.80;;;31.09;34.30;94880.75;5017269;28;20611;-60
2022/08/02 07:48:00;;;;;;;1.80;1.30;;;30.20;47.50;;;31.21;33.95;94874.22;5018972;28;20241;-60
2022/08/02 07:50:29;;;;;;;7.90;1.50;;;30.30;47.60;;;31.32;33.91;94875.06;5018196;28;20721;-59
2022/08/02 07:52:56;;;;;;;1.73;1.63;;;30.40;47.00;;;31.48;34.10;94886.75;5020554;28;20268;-57
2022/08/02 07:55:24;;;;;;;3.17;1.30;;;30.60;47.10;;;31.68;34.09;94878.59;5016650;28;20674;-60
2022/08/02 07:57:52;;;;;;;7.03;1.47;;;30.80;46.70;;;31.91;33.24;94865.53;5018653;28;20222;-60
2022/08/02 08:00:19;;;;;;;3.73;1.73;;;31.00;46.00;;;32.12;33.05;94874.50;5021136;28;20205;-59
2022/08/02 08:02:46;;;;;;;4.97;1.60;;;31.20;45.90;;;32.33;32.65;94880.69;5019908;28;20225;-59
2022/08/02 08:05:14;;;;;;;2.27;1.50;;;31.50;46.10;;;32.55;32.52;94869.47;5019409;28;20204;-58
2022/08/02 08:07:43;;;;;;;1.33;1.00;;;31.70;45.20;;;32.76;32.49;94872.94;5017680;28;20281;-59
2022/08/02 08:10:10;;;;;;;1.30;1.20;;;31.80;45.40;;;33.00;32.11;94872.25;5019452;28;20261;-60
2022/08/02 08:12:38;;;;;;;5.18;1.48;;;32.10;45.10;;;33.08;31.55;94871.66;5018822;28;20225;-58
2022/08/02 08:15:06;;;;;;;9.27;1.38;;;32.20;44.10;;;33.08;31.69;94874.41;5019328;28;20283;-59
2022/08/02 08:17:33;;;;;;;4.22;1.20;;;32.20;44.10;;;33.21;31.64;94881.94;5014633;28;20231;-60
2022/08/02 08:20:01;;;;;;;1.45;1.35;;;32.30;44.20;;;33.45;31.53;94880.44;5019184;28;20202;-59
2022/08/02 08:22:29;;;;;;;5.85;1.20;;;32.50;44.00;;;33.70;31.17;94877.50;5017066;28;20226;-60
2022/08/02 08:24:57;;;;;;;2.47;1.30;;;32.80;43.90;;;33.97;30.65;94872.66;5020502;28;20201;-58
2022/08/02 08:27:24;;;;;;;6.97;1.00;;;33.10;43.30;;;34.22;30.40;94875.13;5018939;28;20241;-59
2022/08/02 08:29:52;;;;;;;1.77;1.20;;;33.30;42.90;;;34.44;30.92;94874.63;5020389;28;20726;-58
2022/08/02 08:32:19;;;;;;;1.48;0.90;;;33.50;42.70;;;34.64;29.95;94864.53;5015094;28;20230;-60
2022/08/02 08:34:46;;;;;;;2.80;1.40;;;33.70;42.10;;;34.83;29.94;94865.44;5019670;28;20292;-59
2022/08/02 08:37:13;;;;;;;6.60;1.20;;;34.00;41.80;;;34.83;29.04;94861.88;5017137;28;20221;-58
2022/08/02 08:39:41;;;;;;;2.17;1.00;;;34.00;41.10;;;34.73;29.69;94865.53;5019930;28;20237;-56
2022/08/02 08:42:09;;;;;;;5.40;1.40;;;33.90;40.80;;;34.75;29.26;94870.69;5019957;28;20777;-59
2022/08/02 08:44:37;;;;;;;12.30;1.48;;;33.90;41.30;;;34.93;29.80;94871.84;5023168;28;20755;-58
2022/08/02 08:47:04;;;;;;;5.10;1.10;;;34.00;41.30;;;35.09;29.01;94866.97;5020395;28;20237;-60
2022/08/02 08:49:33;;;;;;;1.75;1.45;;;34.20;40.90;;;35.11;28.82;94862.84;5023009;28;20202;-58
2022/08/02 08:52:04;;;;;;;2.70;1.00;;;34.30;40.40;;;35.13;28.64;94868.03;5021529;28;20229;-58
2022/08/02 08:54:31;;;;;;;1.20;1.10;;;34.20;40.20;;;35.12;28.36;94866.38;5027396;28;20493;-59
2022/08/02 08:56:59;;;;;;;4.10;1.20;;;34.30;39.80;;;35.07;28.45;94867.28;5020126;28;20217;-59
2022/08/02 08:59:27;;;;;;;2.45;0.95;;;34.20;39.70;;;34.96;28.40;94866.59;5021355;28;20210;-57
2022/08/02 09:01:55;;;;;;;12.10;1.40;;;34.20;39.60;;;34.81;28.82;94866.81;5022156;28;20755;-58
2022/08/02 09:04:22;;;;;;;1.55;1.00;;;34.00;39.60;;;34.64;28.74;94859.91;5021271;28;20659;-58
2022/08/02 09:06:50;;;;;;;4.85;1.88;;;33.90;39.70;;;34.50;28.87;94858.97;5020856;28;20337;-58
2022/08/02 09:09:17;;;;;;;2.95;1.10;;;33.70;39.70;;;34.33;28.52;94859.44;5023380;28;20422;-58
2022/08/02 09:11:44;;;;;;;2.40;1.48;;;33.50;39.50;;;34.13;29.10;94860.50;5022443;28;20283;-57
2022/08/02 09:14:11;;;;;;;1.15;0.98;;;33.40;39.90;;;33.92;29.36;94865.34;5019550;28;20205;-59
2022/08/02 09:16:42;;;;;;;2.08;1.20;;;33.20;39.90;;;33.86;29.35;94855.56;5022036;28;20226;-58
2022/08/02 09:19:20;;;;;;;1.50;1.40;;;33.10;40.40;;;34.06;29.42;94857.28;5020322;28;20254;-58
2022/08/02 09:21:48;;;;;;;2.95;1.33;;;33.20;40.50;;;33.99;29.22;94870.44;5021638;28;20236;-58
2022/08/02 09:24:17;;;;;;;2.83;1.13;;;33.10;40.10;;;33.65;29.12;94863.91;5019077;28;20202;-59
2022/08/02 09:26:44;;;;;;;2.92;1.40;;;32.90;39.90;;;33.41;29.14;94861.09;5021799;28;20233;-59
2022/08/02 09:29:12;;;;;;;3.08;1.00;;;32.70;40.20;;;33.37;29.81;94854.59;5019717;28;20253;-58
2022/08/02 09:31:40;;;;;;;1.38;0.82;;;32.60;40.60;;;33.43;29.55;94853.44;5021346;28;20221;-59
2022/08/02 09:34:08;;;;;;;1.75;1.08;;;32.60;40.90;;;33.63;29.72;94843.47;5018682;28;20620;-59
2022/08/02 09:36:40;;;;;;;2.55;1.08;;;32.80;41.10;;;33.95;29.63;94846.44;5020926;28;20233;-59
2022/08/02 09:39:10;;;;;;;5.30;1.38;;;33.00;41.30;;;34.24;29.82;94851.09;5019199;28;20267;-58
2022/08/02 09:41:40;;;;;;;1.85;1.20;;;33.30;40.70;;;34.52;29.30;94840.41;5020045;28;20292;-59
2022/08/02 09:44:09;;;;;;;1.90;1.25;;;33.50;40.60;;;34.88;28.46;94842.69;5020894;28;20302;-60
2022/08/02 09:46:37;;;;;;;3.85;1.02;;;33.80;40.20;;;35.20;28.43;94838.41;5020189;28;20292;-57
2022/08/02 09:49:08;;;;;;;3.83;1.20;;;34.20;40.00;;;35.54;28.80;94832.69;5020510;28;20434;-62
2022/08/02 09:51:36;;;;;;;2.20;1.10;;;34.60;39.60;;;35.82;27.31;94837.41;5019355;28;20253;-60
2022/08/02 09:54:06;;;;;;;1.42;1.27;;;34.80;38.80;;;35.96;27.59;94832.81;5022388;28;20198;-60
2022/08/02 09:56:47;;;;;;;3.25;1.30;;;35.10;38.70;;;35.97;27.02;94828.13;5018838;28;20628;-59
2022/08/02 09:59:14;;;;;;;1.90;1.25;;;35.10;37.70;;;35.69;26.78;94837.06;5020921;28;20224;-59
2022/08/02 10:01:42;;;;;;;1.10;1.00;;;35.00;36.60;;;35.39;28.38;94829.38;5019136;28;20221;-60
2022/08/02 10:04:11;;;;;;;5.93;1.40;;;34.80;38.10;;;35.20;28.72;94838.41;5021352;28;20311;-58
2022/08/02 10:06:39;;;;;;;1.17;1.08;;;34.60;38.60;;;35.22;27.95;94836.16;5016723;28;20279;-60
2022/08/02 10:09:07;;;;;;;1.50;1.02;;;34.40;38.80;;;35.19;28.33;94828.56;5019438;28;20201;-60
2022/08/02 10:11:34;;;;;;;6.13;0.90;;;34.40;38.60;;;35.04;28.31;94828.78;5018705;28;20800;-58
2022/08/02 10:14:03;;;;;;;1.30;0.93;;;34.30;38.60;;;34.83;27.65;94832.63;5021757;28;20271;-60
2022/08/02 10:16:31;;;;;;;1.20;1.10;;;34.00;38.50;;;34.77;28.32;94824.81;5019281;28;20303;-59
2022/08/02 10:19:00;;;;;;;3.78;2.38;;;34.00;39.40;;;34.81;29.08;94828.56;5018525;28;20205;-59
2022/08/02 10:21:32;;;;;;;4.75;3.42;;;34.00;39.50;;;34.80;27.77;94818.75;5018806;28;20238;-59
2022/08/02 10:24:05;;;;;;;7.88;1.50;;;33.90;39.10;;;34.92;28.25;94819.13;5019366;28;20255;-58
2022/08/02 10:26:33;;;;;;;1.60;1.50;;;34.00;39.10;;;35.07;28.59;94820.81;5024293;28;20226;-60
2022/08/02 10:29:00;;;;;;;1.08;0.98;;;34.20;38.70;;;35.16;27.96;94815.47;5018345;28;20202;-60
2022/08/02 10:31:32;;;;;;;1.80;1.00;;;34.20;38.70;;;35.18;27.84;94824.19;5021019;28;20236;-58